sensor_id;sensor_type;location;lat;lon;timestamp;P1;durP1;ratioP1;P2;durP2;ratioP2
4569;SDS011;2297;51.442;6.996;2023-04-03T00:00:06;7.78;;;5.75;;
4569;SDS011;2297;51.442;6.996;2023-04-03T00:02:34;12.32;;;6.45;;
4569;SDS011;2297;51.442;6.996;2023-04-03T00:05:01;8.80;;;6.03;;
4569;SDS011;2297;51.442;6.996;2023-04-03T00:07:28;10.43;;;6.30;;
4569;SDS011;2297;51.442;6.996;2023-04-03T00:09:54;9.65;;;5.80;;
4569;SDS011;2297;51.442;6.996;2023-04-03T00:12:22;10.43;;;6.45;;
4569;SDS011;2297;51.442;6.996;2023-04-03T00:14:49;10.18;;;6.13;;
4569;SDS011;2297;51.442;6.996;2023-04-03T00:17:15;10.02;;;6.82;;
4569;SDS011;2297;51.442;6.996;2023-04-03T00:19:42;11.27;;;6.38;;
4569;SDS011;2297;51.442;6.996;2023-04-03T00:22:09;11.07;;;6.22;;
4569;SDS011;2297;51.442;6.996;2023-04-03T00:24:35;10.90;;;6.55;;
4569;SDS011;2297;51.442;6.996;2023-04-03T00:27:02;10.90;;;6.20;;
4569;SDS011;2297;51.442;6.996;2023-04-03T00:29:30;8.63;;;5.78;;
4569;SDS011;2297;51.442;6.996;2023-04-03T00:31:56;12.25;;;6.55;;
4569;SDS011;2297;51.442;6.996;2023-04-03T00:34:23;7.63;;;5.30;;
4569;SDS011;2297;51.442;6.996;2023-04-03T00:36:51;10.10;;;5.57;;
4569;SDS011;2297;51.442;6.996;2023-04-03T00:39:18;9.90;;;5.97;;
4569;SDS011;2297;51.442;6.996;2023-04-03T00:41:44;8.57;;;5.57;;
4569;SDS011;2297;51.442;6.996;2023-04-03T00:44:21;7.95;;;5.80;;
4569;SDS011;2297;51.442;6.996;2023-04-03T00:46:50;10.10;;;5.93;;
4569;SDS011;2297;51.442;6.996;2023-04-03T00:49:17;10.57;;;6.28;;
4569;SDS011;2297;51.442;6.996;2023-04-03T00:51:44;11.95;;;6.47;;
4569;SDS011;2297;51.442;6.996;2023-04-03T00:54:10;11.60;;;6.25;;
4569;SDS011;2297;51.442;6.996;2023-04-03T00:56:38;11.00;;;6.38;;
4569;SDS011;2297;51.442;6.996;2023-04-03T00:59:06;7.85;;;6.15;;
4569;SDS011;2297;51.442;6.996;2023-04-03T01:01:36;9.13;;;6.07;;
4569;SDS011;2297;51.442;6.996;2023-04-03T01:04:05;10.43;;;6.47;;
4569;SDS011;2297;51.442;6.996;2023-04-03T01:06:33;10.18;;;6.30;;
4569;SDS011;2297;51.442;6.996;2023-04-03T01:09:02;9.85;;;5.88;;
4569;SDS011;2297;51.442;6.996;2023-04-03T01:11:30;10.75;;;5.93;;
4569;SDS011;2297;51.442;6.996;2023-04-03T01:13:56;12.52;;;6.82;;
4569;SDS011;2297;51.442;6.996;2023-04-03T01:16:23;12.68;;;6.78;;
4569;SDS011;2297;51.442;6.996;2023-04-03T01:18:50;11.25;;;6.70;;
4569;SDS011;2297;51.442;6.996;2023-04-03T01:24:30;9.60;;;5.53;;
4569;SDS011;2297;51.442;6.996;2023-04-03T01:27:00;8.75;;;5.32;;
4569;SDS011;2297;51.442;6.996;2023-04-03T01:29:28;10.73;;;5.50;;
4569;SDS011;2297;51.442;6.996;2023-04-03T01:31:57;7.32;;;5.05;;
4569;SDS011;2297;51.442;6.996;2023-04-03T01:34:25;8.60;;;5.20;;
4569;SDS011;2297;51.442;6.996;2023-04-03T01:36:52;7.82;;;4.53;;
4569;SDS011;2297;51.442;6.996;2023-04-03T01:39:19;12.05;;;5.65;;
4569;SDS011;2297;51.442;6.996;2023-04-03T01:41:46;7.90;;;4.57;;
4569;SDS011;2297;51.442;6.996;2023-04-03T01:44:13;7.72;;;4.53;;
4569;SDS011;2297;51.442;6.996;2023-04-03T01:46:40;8.35;;;5.25;;
4569;SDS011;2297;51.442;6.996;2023-04-03T01:49:08;10.05;;;4.68;;
4569;SDS011;2297;51.442;6.996;2023-04-03T01:51:35;10.40;;;4.45;;
4569;SDS011;2297;51.442;6.996;2023-04-03T01:54:02;8.57;;;4.45;;
4569;SDS011;2297;51.442;6.996;2023-04-03T01:56:29;9.77;;;4.95;;
4569;SDS011;2297;51.442;6.996;2023-04-03T01:58:55;7.55;;;4.25;;
4569;SDS011;2297;51.442;6.996;2023-04-03T02:01:22;7.30;;;4.40;;
4569;SDS011;2297;51.442;6.996;2023-04-03T02:03:48;11.15;;;4.05;;
4569;SDS011;2297;51.442;6.996;2023-04-03T02:06:17;7.75;;;3.92;;
4569;SDS011;2297;51.442;6.996;2023-04-03T02:08:43;5.40;;;3.83;;
4569;SDS011;2297;51.442;6.996;2023-04-03T02:11:10;12.43;;;4.32;;
4569;SDS011;2297;51.442;6.996;2023-04-03T02:13:37;7.90;;;4.55;;
4569;SDS011;2297;51.442;6.996;2023-04-03T02:16:07;6.28;;;3.72;;
4569;SDS011;2297;51.442;6.996;2023-04-03T02:18:34;7.70;;;4.00;;
4569;SDS011;2297;51.442;6.996;2023-04-03T02:21:01;11.43;;;3.50;;
4569;SDS011;2297;51.442;6.996;2023-04-03T02:23:29;6.55;;;3.78;;
4569;SDS011;2297;51.442;6.996;2023-04-03T02:26:02;5.93;;;3.30;;
4569;SDS011;2297;51.442;6.996;2023-04-03T02:30:57;5.70;;;3.42;;
4569;SDS011;2297;51.442;6.996;2023-04-03T02:33:24;8.35;;;3.53;;
4569;SDS011;2297;51.442;6.996;2023-04-03T02:35:52;5.05;;;2.92;;
4569;SDS011;2297;51.442;6.996;2023-04-03T02:38:19;7.32;;;3.17;;
4569;SDS011;2297;51.442;6.996;2023-04-03T02:40:47;5.72;;;3.17;;
4569;SDS011;2297;51.442;6.996;2023-04-03T02:43:14;9.02;;;3.80;;
4569;SDS011;2297;51.442;6.996;2023-04-03T02:45:41;5.43;;;3.00;;
4569;SDS011;2297;51.442;6.996;2023-04-03T02:48:07;8.48;;;3.50;;
4569;SDS011;2297;51.442;6.996;2023-04-03T02:50:34;6.68;;;4.30;;
4569;SDS011;2297;51.442;6.996;2023-04-03T02:53:01;6.28;;;3.55;;
4569;SDS011;2297;51.442;6.996;2023-04-03T02:55:27;16.05;;;5.80;;
4569;SDS011;2297;51.442;6.996;2023-04-03T02:57:55;6.57;;;3.92;;
4569;SDS011;2297;51.442;6.996;2023-04-03T03:00:22;6.20;;;3.28;;
4569;SDS011;2297;51.442;6.996;2023-04-03T03:02:49;5.05;;;2.80;;
4569;SDS011;2297;51.442;6.996;2023-04-03T03:05:16;4.53;;;3.08;;
4569;SDS011;2297;51.442;6.996;2023-04-03T03:07:43;4.72;;;2.90;;
4569;SDS011;2297;51.442;6.996;2023-04-03T03:10:10;7.97;;;3.10;;
4569;SDS011;2297;51.442;6.996;2023-04-03T03:12:36;4.65;;;2.55;;
4569;SDS011;2297;51.442;6.996;2023-04-03T03:15:05;4.93;;;2.38;;
4569;SDS011;2297;51.442;6.996;2023-04-03T03:17:32;4.18;;;2.58;;
4569;SDS011;2297;51.442;6.996;2023-04-03T03:20:00;5.25;;;2.72;;
4569;SDS011;2297;51.442;6.996;2023-04-03T03:22:27;6.72;;;2.95;;
4569;SDS011;2297;51.442;6.996;2023-04-03T03:24:54;6.95;;;2.50;;
4569;SDS011;2297;51.442;6.996;2023-04-03T03:27:27;6.70;;;3.33;;
4569;SDS011;2297;51.442;6.996;2023-04-03T03:29:54;6.03;;;2.88;;
4569;SDS011;2297;51.442;6.996;2023-04-03T03:32:22;5.00;;;2.95;;
4569;SDS011;2297;51.442;6.996;2023-04-03T03:34:49;4.45;;;2.47;;
4569;SDS011;2297;51.442;6.996;2023-04-03T03:37:15;5.05;;;2.53;;
4569;SDS011;2297;51.442;6.996;2023-04-03T03:39:42;3.88;;;2.47;;
4569;SDS011;2297;51.442;6.996;2023-04-03T03:42:09;6.15;;;2.55;;
4569;SDS011;2297;51.442;6.996;2023-04-03T03:44:36;2.90;;;2.10;;
4569;SDS011;2297;51.442;6.996;2023-04-03T03:47:02;6.63;;;2.72;;
4569;SDS011;2297;51.442;6.996;2023-04-03T03:49:32;6.30;;;2.72;;
4569;SDS011;2297;51.442;6.996;2023-04-03T03:51:59;7.85;;;2.72;;
4569;SDS011;2297;51.442;6.996;2023-04-03T03:54:25;6.15;;;2.45;;
4569;SDS011;2297;51.442;6.996;2023-04-03T03:56:52;6.93;;;2.40;;
4569;SDS011;2297;51.442;6.996;2023-04-03T03:59:18;5.72;;;1.98;;
4569;SDS011;2297;51.442;6.996;2023-04-03T04:01:45;7.45;;;2.20;;
4569;SDS011;2297;51.442;6.996;2023-04-03T04:04:12;5.82;;;2.30;;
4569;SDS011;2297;51.442;6.996;2023-04-03T04:06:40;4.07;;;2.15;;
4569;SDS011;2297;51.442;6.996;2023-04-03T04:09:06;4.57;;;2.20;;
4569;SDS011;2297;51.442;6.996;2023-04-03T04:11:34;7.53;;;2.08;;
4569;SDS011;2297;51.442;6.996;2023-04-03T04:14:01;3.17;;;1.90;;
4569;SDS011;2297;51.442;6.996;2023-04-03T04:16:27;4.15;;;1.98;;
4569;SDS011;2297;51.442;6.996;2023-04-03T04:18:54;9.98;;;2.83;;
4569;SDS011;2297;51.442;6.996;2023-04-03T04:21:21;6.50;;;2.20;;
4569;SDS011;2297;51.442;6.996;2023-04-03T04:23:49;3.60;;;2.00;;
4569;SDS011;2297;51.442;6.996;2023-04-03T04:26:15;7.05;;;2.60;;
4569;SDS011;2297;51.442;6.996;2023-04-03T04:28:42;7.47;;;2.70;;
4569;SDS011;2297;51.442;6.996;2023-04-03T04:31:09;5.47;;;2.55;;
4569;SDS011;2297;51.442;6.996;2023-04-03T04:33:35;5.35;;;1.90;;
4569;SDS011;2297;51.442;6.996;2023-04-03T04:36:02;11.65;;;2.30;;
4569;SDS011;2297;51.442;6.996;2023-04-03T04:38:29;5.38;;;2.20;;
4569;SDS011;2297;51.442;6.996;2023-04-03T04:40:57;5.60;;;2.60;;
4569;SDS011;2297;51.442;6.996;2023-04-03T04:43:23;5.85;;;2.70;;
4569;SDS011;2297;51.442;6.996;2023-04-03T04:45:59;7.80;;;2.55;;
4569;SDS011;2297;51.442;6.996;2023-04-03T04:48:26;4.70;;;2.35;;
4569;SDS011;2297;51.442;6.996;2023-04-03T04:50:53;5.00;;;2.45;;
4569;SDS011;2297;51.442;6.996;2023-04-03T04:53:20;7.57;;;2.60;;
4569;SDS011;2297;51.442;6.996;2023-04-03T04:55:46;6.10;;;2.80;;
4569;SDS011;2297;51.442;6.996;2023-04-03T04:58:14;7.00;;;2.30;;
4569;SDS011;2297;51.442;6.996;2023-04-03T05:00:41;6.35;;;2.47;;
4569;SDS011;2297;51.442;6.996;2023-04-03T05:03:08;7.22;;;3.00;;
4569;SDS011;2297;51.442;6.996;2023-04-03T05:05:34;8.13;;;2.28;;
4569;SDS011;2297;51.442;6.996;2023-04-03T05:08:01;8.02;;;2.50;;
4569;SDS011;2297;51.442;6.996;2023-04-03T05:10:28;5.53;;;2.67;;
4569;SDS011;2297;51.442;6.996;2023-04-03T05:12:56;7.47;;;2.55;;
4569;SDS011;2297;51.442;6.996;2023-04-03T05:15:24;4.78;;;2.58;;
4569;SDS011;2297;51.442;6.996;2023-04-03T05:17:51;5.50;;;2.60;;
4569;SDS011;2297;51.442;6.996;2023-04-03T05:20:17;4.97;;;2.15;;
4569;SDS011;2297;51.442;6.996;2023-04-03T05:22:44;6.03;;;2.30;;
4569;SDS011;2297;51.442;6.996;2023-04-03T05:25:11;6.47;;;2.80;;
4569;SDS011;2297;51.442;6.996;2023-04-03T05:27:37;6.13;;;2.58;;
4569;SDS011;2297;51.442;6.996;2023-04-03T05:30:04;7.68;;;2.28;;
4569;SDS011;2297;51.442;6.996;2023-04-03T05:32:33;6.72;;;2.90;;
4569;SDS011;2297;51.442;6.996;2023-04-03T05:35:00;9.02;;;2.63;;
4569;SDS011;2297;51.442;6.996;2023-04-03T05:37:27;8.73;;;3.03;;
4569;SDS011;2297;51.442;6.996;2023-04-03T05:39:53;8.93;;;3.28;;
4569;SDS011;2297;51.442;6.996;2023-04-03T05:42:20;6.88;;;3.20;;
4569;SDS011;2297;51.442;6.996;2023-04-03T05:44:47;7.45;;;2.90;;
4569;SDS011;2297;51.442;6.996;2023-04-03T05:47:15;11.93;;;3.40;;
4569;SDS011;2297;51.442;6.996;2023-04-03T05:49:43;9.80;;;2.80;;
4569;SDS011;2297;51.442;6.996;2023-04-03T05:52:11;4.68;;;2.42;;
4569;SDS011;2297;51.442;6.996;2023-04-03T05:54:46;7.80;;;3.42;;
4569;SDS011;2297;51.442;6.996;2023-04-03T05:57:13;6.03;;;2.47;;
4569;SDS011;2297;51.442;6.996;2023-04-03T05:59:41;5.47;;;2.70;;
4569;SDS011;2297;51.442;6.996;2023-04-03T06:02:09;5.25;;;2.70;;
4569;SDS011;2297;51.442;6.996;2023-04-03T06:04:36;5.65;;;2.70;;
4569;SDS011;2297;51.442;6.996;2023-04-03T06:07:04;6.22;;;2.70;;
4569;SDS011;2297;51.442;6.996;2023-04-03T06:09:31;6.70;;;2.70;;
4569;SDS011;2297;51.442;6.996;2023-04-03T06:11:58;8.70;;;2.92;;
4569;SDS011;2297;51.442;6.996;2023-04-03T06:14:25;6.88;;;3.03;;
4569;SDS011;2297;51.442;6.996;2023-04-03T06:16:52;12.63;;;3.05;;
4569;SDS011;2297;51.442;6.996;2023-04-03T06:19:19;5.35;;;2.67;;
4569;SDS011;2297;51.442;6.996;2023-04-03T06:21:46;7.38;;;2.58;;
4569;SDS011;2297;51.442;6.996;2023-04-03T06:24:15;5.82;;;2.50;;
4569;SDS011;2297;51.442;6.996;2023-04-03T06:26:43;8.95;;;2.67;;
4569;SDS011;2297;51.442;6.996;2023-04-03T06:29:10;6.78;;;2.90;;
4569;SDS011;2297;51.442;6.996;2023-04-03T06:31:37;8.45;;;2.70;;
4569;SDS011;2297;51.442;6.996;2023-04-03T06:34:04;7.53;;;3.10;;
4569;SDS011;2297;51.442;6.996;2023-04-03T06:36:32;7.43;;;2.88;;
4569;SDS011;2297;51.442;6.996;2023-04-03T06:38:59;7.15;;;3.33;;
4569;SDS011;2297;51.442;6.996;2023-04-03T06:41:27;7.57;;;2.60;;
4569;SDS011;2297;51.442;6.996;2023-04-03T06:43:54;7.10;;;3.00;;
4569;SDS011;2297;51.442;6.996;2023-04-03T06:46:23;10.60;;;3.33;;
4569;SDS011;2297;51.442;6.996;2023-04-03T06:48:52;8.07;;;2.95;;
4569;SDS011;2297;51.442;6.996;2023-04-03T06:51:19;13.32;;;3.30;;
4569;SDS011;2297;51.442;6.996;2023-04-03T06:53:47;9.80;;;3.20;;
4569;SDS011;2297;51.442;6.996;2023-04-03T06:56:15;8.02;;;2.90;;
4569;SDS011;2297;51.442;6.996;2023-04-03T06:58:43;6.78;;;2.95;;
4569;SDS011;2297;51.442;6.996;2023-04-03T07:01:11;9.00;;;3.30;;
4569;SDS011;2297;51.442;6.996;2023-04-03T07:03:40;6.88;;;3.20;;
4569;SDS011;2297;51.442;6.996;2023-04-03T07:06:07;5.32;;;2.75;;
4569;SDS011;2297;51.442;6.996;2023-04-03T07:08:37;13.88;;;2.92;;
4569;SDS011;2297;51.442;6.996;2023-04-03T07:11:04;5.15;;;2.42;;
4569;SDS011;2297;51.442;6.996;2023-04-03T07:13:31;5.32;;;2.60;;
4569;SDS011;2297;51.442;6.996;2023-04-03T07:16:00;7.53;;;2.53;;
4569;SDS011;2297;51.442;6.996;2023-04-03T07:18:27;6.82;;;3.00;;
4569;SDS011;2297;51.442;6.996;2023-04-03T07:20:53;7.15;;;2.83;;
4569;SDS011;2297;51.442;6.996;2023-04-03T07:23:20;4.82;;;2.15;;
4569;SDS011;2297;51.442;6.996;2023-04-03T07:25:48;6.55;;;2.45;;
4569;SDS011;2297;51.442;6.996;2023-04-03T07:28:16;7.07;;;2.80;;
4569;SDS011;2297;51.442;6.996;2023-04-03T07:30:44;10.55;;;2.30;;
4569;SDS011;2297;51.442;6.996;2023-04-03T07:33:13;5.38;;;2.50;;
4569;SDS011;2297;51.442;6.996;2023-04-03T07:35:40;7.75;;;3.40;;
4569;SDS011;2297;51.442;6.996;2023-04-03T07:38:08;6.90;;;3.47;;
4569;SDS011;2297;51.442;6.996;2023-04-03T07:40:35;10.98;;;2.88;;
4569;SDS011;2297;51.442;6.996;2023-04-03T07:43:02;8.18;;;2.70;;
4569;SDS011;2297;51.442;6.996;2023-04-03T07:45:29;6.00;;;2.40;;
4569;SDS011;2297;51.442;6.996;2023-04-03T07:47:55;7.10;;;2.22;;
4569;SDS011;2297;51.442;6.996;2023-04-03T07:50:23;5.05;;;2.33;;
4569;SDS011;2297;51.442;6.996;2023-04-03T07:52:51;5.63;;;2.60;;
4569;SDS011;2297;51.442;6.996;2023-04-03T07:55:19;8.95;;;2.40;;
4569;SDS011;2297;51.442;6.996;2023-04-03T07:57:46;6.82;;;2.47;;
4569;SDS011;2297;51.442;6.996;2023-04-03T08:00:13;6.07;;;2.30;;
4569;SDS011;2297;51.442;6.996;2023-04-03T08:02:42;4.72;;;2.15;;
4569;SDS011;2297;51.442;6.996;2023-04-03T08:05:09;5.88;;;2.15;;
4569;SDS011;2297;51.442;6.996;2023-04-03T08:07:38;5.75;;;2.25;;
4569;SDS011;2297;51.442;6.996;2023-04-03T08:10:05;7.30;;;2.70;;
4569;SDS011;2297;51.442;6.996;2023-04-03T08:12:32;5.55;;;2.40;;
4569;SDS011;2297;51.442;6.996;2023-04-03T08:14:59;5.20;;;2.22;;
4569;SDS011;2297;51.442;6.996;2023-04-03T08:17:26;4.63;;;2.20;;
4569;SDS011;2297;51.442;6.996;2023-04-03T08:19:53;4.55;;;1.88;;
4569;SDS011;2297;51.442;6.996;2023-04-03T08:22:20;5.95;;;2.00;;
4569;SDS011;2297;51.442;6.996;2023-04-03T08:24:48;4.32;;;1.80;;
4569;SDS011;2297;51.442;6.996;2023-04-03T08:27:15;6.47;;;2.38;;
4569;SDS011;2297;51.442;6.996;2023-04-03T08:29:41;8.43;;;1.90;;
4569;SDS011;2297;51.442;6.996;2023-04-03T08:32:08;6.35;;;2.22;;
4569;SDS011;2297;51.442;6.996;2023-04-03T08:34:36;9.88;;;2.63;;
4569;SDS011;2297;51.442;6.996;2023-04-03T08:37:04;3.53;;;1.85;;
4569;SDS011;2297;51.442;6.996;2023-04-03T08:39:31;5.70;;;1.85;;
4569;SDS011;2297;51.442;6.996;2023-04-03T08:42:00;4.93;;;1.92;;
4569;SDS011;2297;51.442;6.996;2023-04-03T08:44:37;4.55;;;1.73;;
4569;SDS011;2297;51.442;6.996;2023-04-03T08:47:12;5.47;;;1.92;;
4569;SDS011;2297;51.442;6.996;2023-04-03T08:49:49;6.15;;;2.38;;
4569;SDS011;2297;51.442;6.996;2023-04-03T08:52:19;2.67;;;1.67;;
4569;SDS011;2297;51.442;6.996;2023-04-03T08:54:52;5.85;;;1.60;;
4569;SDS011;2297;51.442;6.996;2023-04-03T08:57:26;5.00;;;2.25;;
4569;SDS011;2297;51.442;6.996;2023-04-03T09:02:25;5.57;;;2.33;;
4569;SDS011;2297;51.442;6.996;2023-04-03T09:04:55;7.25;;;1.80;;
4569;SDS011;2297;51.442;6.996;2023-04-03T09:07:23;4.95;;;1.70;;
4569;SDS011;2297;51.442;6.996;2023-04-03T09:09:58;4.63;;;1.95;;
4569;SDS011;2297;51.442;6.996;2023-04-03T09:12:32;4.93;;;1.70;;
4569;SDS011;2297;51.442;6.996;2023-04-03T09:15:05;2.38;;;1.60;;
4569;SDS011;2297;51.442;6.996;2023-04-03T09:17:41;3.55;;;1.40;;
4569;SDS011;2297;51.442;6.996;2023-04-03T09:20:19;3.90;;;1.80;;
4569;SDS011;2297;51.442;6.996;2023-04-03T09:22:49;3.58;;;1.80;;
4569;SDS011;2297;51.442;6.996;2023-04-03T09:25:18;8.50;;;1.55;;
4569;SDS011;2297;51.442;6.996;2023-04-03T09:27:49;3.78;;;1.67;;
4569;SDS011;2297;51.442;6.996;2023-04-03T09:30:17;4.03;;;1.60;;
4569;SDS011;2297;51.442;6.996;2023-04-03T09:32:45;2.25;;;1.33;;
4569;SDS011;2297;51.442;6.996;2023-04-03T09:35:18;3.67;;;1.33;;
4569;SDS011;2297;51.442;6.996;2023-04-03T09:37:48;2.03;;;1.40;;
4569;SDS011;2297;51.442;6.996;2023-04-03T09:43:08;2.67;;;1.13;;
4569;SDS011;2297;51.442;6.996;2023-04-03T09:45:49;3.35;;;1.30;;
4569;SDS011;2297;51.442;6.996;2023-04-03T09:48:18;7.97;;;1.70;;
4569;SDS011;2297;51.442;6.996;2023-04-03T09:50:54;3.38;;;1.20;;
4569;SDS011;2297;51.442;6.996;2023-04-03T09:53:26;4.03;;;1.58;;
4569;SDS011;2297;51.442;6.996;2023-04-03T09:55:55;4.57;;;1.85;;
4569;SDS011;2297;51.442;6.996;2023-04-03T09:58:25;1.98;;;1.40;;
4569;SDS011;2297;51.442;6.996;2023-04-03T10:00:54;1.83;;;1.10;;
4569;SDS011;2297;51.442;6.996;2023-04-03T10:03:23;2.03;;;1.13;;
4569;SDS011;2297;51.442;6.996;2023-04-03T10:05:53;2.35;;;1.20;;
4569;SDS011;2297;51.442;6.996;2023-04-03T10:08:21;2.90;;;1.40;;
4569;SDS011;2297;51.442;6.996;2023-04-03T10:11:05;1.77;;;1.30;;
4569;SDS011;2297;51.442;6.996;2023-04-03T10:13:36;1.83;;;1.25;;
4569;SDS011;2297;51.442;6.996;2023-04-03T10:16:16;2.08;;;1.27;;
4569;SDS011;2297;51.442;6.996;2023-04-03T10:18:44;5.07;;;1.90;;
4569;SDS011;2297;51.442;6.996;2023-04-03T10:21:15;4.38;;;1.50;;
4569;SDS011;2297;51.442;6.996;2023-04-03T10:23:50;3.80;;;2.03;;
4569;SDS011;2297;51.442;6.996;2023-04-03T10:26:23;4.57;;;1.40;;
4569;SDS011;2297;51.442;6.996;2023-04-03T10:29:02;2.75;;;1.60;;
4569;SDS011;2297;51.442;6.996;2023-04-03T10:31:42;2.38;;;1.25;;
4569;SDS011;2297;51.442;6.996;2023-04-03T10:34:18;4.15;;;1.55;;
4569;SDS011;2297;51.442;6.996;2023-04-03T10:36:50;2.63;;;1.40;;
4569;SDS011;2297;51.442;6.996;2023-04-03T10:39:23;3.08;;;1.48;;
4569;SDS011;2297;51.442;6.996;2023-04-03T10:41:59;3.10;;;1.70;;
4569;SDS011;2297;51.442;6.996;2023-04-03T10:44:35;6.05;;;1.77;;
4569;SDS011;2297;51.442;6.996;2023-04-03T10:47:09;2.92;;;1.40;;
4569;SDS011;2297;51.442;6.996;2023-04-03T10:49:43;4.07;;;1.50;;
4569;SDS011;2297;51.442;6.996;2023-04-03T10:52:21;7.07;;;1.75;;
4569;SDS011;2297;51.442;6.996;2023-04-03T10:54:55;6.72;;;1.88;;
4569;SDS011;2297;51.442;6.996;2023-04-03T10:57:27;6.32;;;1.60;;
4569;SDS011;2297;51.442;6.996;2023-04-03T10:59:58;2.90;;;1.50;;
4569;SDS011;2297;51.442;6.996;2023-04-03T11:02:28;4.88;;;2.17;;
4569;SDS011;2297;51.442;6.996;2023-04-03T11:04:59;2.78;;;1.58;;
4569;SDS011;2297;51.442;6.996;2023-04-03T11:07:28;4.63;;;1.60;;
4569;SDS011;2297;51.442;6.996;2023-04-03T11:10:00;3.13;;;1.30;;
4569;SDS011;2297;51.442;6.996;2023-04-03T11:12:32;2.90;;;1.75;;
4569;SDS011;2297;51.442;6.996;2023-04-03T11:15:11;5.32;;;1.75;;
4569;SDS011;2297;51.442;6.996;2023-04-03T11:17:41;2.33;;;1.58;;
4569;SDS011;2297;51.442;6.996;2023-04-03T11:20:16;2.67;;;1.60;;
4569;SDS011;2297;51.442;6.996;2023-04-03T11:22:47;5.03;;;1.52;;
4569;SDS011;2297;51.442;6.996;2023-04-03T11:25:18;1.75;;;1.48;;
4569;SDS011;2297;51.442;6.996;2023-04-03T11:27:49;1.60;;;1.27;;
4569;SDS011;2297;51.442;6.996;2023-04-03T11:30:23;4.40;;;1.65;;
4569;SDS011;2297;51.442;6.996;2023-04-03T11:35:50;4.03;;;1.38;;
4569;SDS011;2297;51.442;6.996;2023-04-03T11:38:21;3.03;;;1.40;;
4569;SDS011;2297;51.442;6.996;2023-04-03T11:40:51;4.40;;;1.88;;
4569;SDS011;2297;51.442;6.996;2023-04-03T11:43:21;6.53;;;2.83;;
4569;SDS011;2297;51.442;6.996;2023-04-03T11:45:53;2.97;;;1.88;;
4569;SDS011;2297;51.442;6.996;2023-04-03T11:48:43;2.80;;;1.40;;
4569;SDS011;2297;51.442;6.996;2023-04-03T12:09:24;4.13;;;1.40;;
4569;SDS011;2297;51.442;6.996;2023-04-03T12:11:54;1.95;;;1.42;;
4569;SDS011;2297;51.442;6.996;2023-04-03T12:14:22;2.97;;;1.40;;
4569;SDS011;2297;51.442;6.996;2023-04-03T12:16:50;2.53;;;1.48;;
4569;SDS011;2297;51.442;6.996;2023-04-03T12:19:33;6.07;;;1.45;;
4569;SDS011;2297;51.442;6.996;2023-04-03T12:22:11;3.47;;;1.30;;
4569;SDS011;2297;51.442;6.996;2023-04-03T12:24:42;4.40;;;1.60;;
4569;SDS011;2297;51.442;6.996;2023-04-03T12:27:23;3.90;;;1.40;;
4569;SDS011;2297;51.442;6.996;2023-04-03T12:30:11;1.73;;;1.40;;
4569;SDS011;2297;51.442;6.996;2023-04-03T12:32:46;4.07;;;1.50;;
4569;SDS011;2297;51.442;6.996;2023-04-03T12:35:24;2.95;;;1.60;;
4569;SDS011;2297;51.442;6.996;2023-04-03T12:38:00;3.30;;;1.50;;
4569;SDS011;2297;51.442;6.996;2023-04-03T12:40:45;3.22;;;1.48;;
4569;SDS011;2297;51.442;6.996;2023-04-03T12:43:23;5.25;;;1.50;;
4569;SDS011;2297;51.442;6.996;2023-04-03T12:46:10;3.10;;;1.63;;
4569;SDS011;2297;51.442;6.996;2023-04-03T12:48:46;3.80;;;2.00;;
4569;SDS011;2297;51.442;6.996;2023-04-03T12:51:14;2.40;;;1.40;;
4569;SDS011;2297;51.442;6.996;2023-04-03T12:53:44;2.15;;;1.20;;
4569;SDS011;2297;51.442;6.996;2023-04-03T12:56:19;2.22;;;1.60;;
4569;SDS011;2297;51.442;6.996;2023-04-03T12:58:48;5.45;;;1.75;;
4569;SDS011;2297;51.442;6.996;2023-04-03T13:01:16;2.88;;;1.25;;
4569;SDS011;2297;51.442;6.996;2023-04-03T13:03:47;3.90;;;1.55;;
4569;SDS011;2297;51.442;6.996;2023-04-03T13:06:17;3.00;;;1.30;;
4569;SDS011;2297;51.442;6.996;2023-04-03T13:08:49;3.05;;;1.80;;
4569;SDS011;2297;51.442;6.996;2023-04-03T13:11:16;3.22;;;1.50;;
4569;SDS011;2297;51.442;6.996;2023-04-03T13:13:56;4.80;;;1.75;;
4569;SDS011;2297;51.442;6.996;2023-04-03T13:16:24;6.95;;;1.77;;
4569;SDS011;2297;51.442;6.996;2023-04-03T13:18:51;2.72;;;1.30;;
4569;SDS011;2297;51.442;6.996;2023-04-03T13:21:19;2.38;;;1.30;;
4569;SDS011;2297;51.442;6.996;2023-04-03T13:23:49;2.38;;;1.20;;
4569;SDS011;2297;51.442;6.996;2023-04-03T13:26:19;3.45;;;1.58;;
4569;SDS011;2297;51.442;6.996;2023-04-03T13:28:47;3.42;;;1.60;;
4569;SDS011;2297;51.442;6.996;2023-04-03T13:31:19;3.10;;;1.27;;
4569;SDS011;2297;51.442;6.996;2023-04-03T13:33:53;3.13;;;1.55;;
4569;SDS011;2297;51.442;6.996;2023-04-03T13:36:24;8.27;;;1.95;;
4569;SDS011;2297;51.442;6.996;2023-04-03T13:39:05;4.60;;;1.70;;
4569;SDS011;2297;51.442;6.996;2023-04-03T13:41:47;4.07;;;1.50;;
4569;SDS011;2297;51.442;6.996;2023-04-03T13:44:18;1.90;;;1.30;;
4569;SDS011;2297;51.442;6.996;2023-04-03T13:46:53;3.13;;;1.55;;
4569;SDS011;2297;51.442;6.996;2023-04-03T13:49:29;4.45;;;1.48;;
4569;SDS011;2297;51.442;6.996;2023-04-03T13:52:00;3.05;;;1.50;;
4569;SDS011;2297;51.442;6.996;2023-04-03T13:54:29;3.10;;;1.25;;
4569;SDS011;2297;51.442;6.996;2023-04-03T13:57:01;2.55;;;1.40;;
4569;SDS011;2297;51.442;6.996;2023-04-03T13:59:30;4.25;;;1.60;;
4569;SDS011;2297;51.442;6.996;2023-04-03T14:02:09;4.85;;;1.77;;
4569;SDS011;2297;51.442;6.996;2023-04-03T14:04:45;3.38;;;1.55;;
4569;SDS011;2297;51.442;6.996;2023-04-03T14:07:21;3.30;;;1.60;;
4569;SDS011;2297;51.442;6.996;2023-04-03T14:09:48;4.70;;;1.70;;
4569;SDS011;2297;51.442;6.996;2023-04-03T14:12:18;2.05;;;1.25;;
4569;SDS011;2297;51.442;6.996;2023-04-03T14:14:52;5.28;;;1.52;;
4569;SDS011;2297;51.442;6.996;2023-04-03T14:17:22;4.10;;;1.30;;
4569;SDS011;2297;51.442;6.996;2023-04-03T14:19:50;4.43;;;1.88;;
4569;SDS011;2297;51.442;6.996;2023-04-03T14:22:19;4.18;;;1.45;;
4569;SDS011;2297;51.442;6.996;2023-04-03T14:24:48;3.45;;;1.40;;
4569;SDS011;2297;51.442;6.996;2023-04-03T14:27:19;3.53;;;1.75;;
4569;SDS011;2297;51.442;6.996;2023-04-03T14:29:49;1.95;;;1.33;;
4569;SDS011;2297;51.442;6.996;2023-04-03T14:32:18;3.45;;;1.42;;
4569;SDS011;2297;51.442;6.996;2023-04-03T14:34:47;2.42;;;1.30;;
4569;SDS011;2297;51.442;6.996;2023-04-03T14:37:15;2.53;;;1.33;;
4569;SDS011;2297;51.442;6.996;2023-04-03T14:39:44;5.53;;;2.75;;
4569;SDS011;2297;51.442;6.996;2023-04-03T14:42:12;4.43;;;1.92;;
4569;SDS011;2297;51.442;6.996;2023-04-03T14:44:41;4.05;;;1.80;;
4569;SDS011;2297;51.442;6.996;2023-04-03T14:47:09;3.47;;;1.48;;
4569;SDS011;2297;51.442;6.996;2023-04-03T14:49:37;3.00;;;1.50;;
4569;SDS011;2297;51.442;6.996;2023-04-03T14:52:04;3.42;;;1.38;;
4569;SDS011;2297;51.442;6.996;2023-04-03T14:54:30;4.60;;;1.55;;
4569;SDS011;2297;51.442;6.996;2023-04-03T14:56:57;4.53;;;1.58;;
4569;SDS011;2297;51.442;6.996;2023-04-03T14:59:26;3.30;;;1.48;;
4569;SDS011;2297;51.442;6.996;2023-04-03T15:01:56;5.50;;;1.80;;
4569;SDS011;2297;51.442;6.996;2023-04-03T15:04:22;2.53;;;1.60;;
4569;SDS011;2297;51.442;6.996;2023-04-03T15:06:50;4.80;;;1.48;;
4569;SDS011;2297;51.442;6.996;2023-04-03T15:09:19;3.50;;;1.30;;
4569;SDS011;2297;51.442;6.996;2023-04-03T15:11:47;4.95;;;1.60;;
4569;SDS011;2297;51.442;6.996;2023-04-03T15:14:14;3.92;;;1.60;;
4569;SDS011;2297;51.442;6.996;2023-04-03T15:16:40;3.95;;;1.60;;
4569;SDS011;2297;51.442;6.996;2023-04-03T15:19:08;3.28;;;1.85;;
4569;SDS011;2297;51.442;6.996;2023-04-03T15:21:36;2.33;;;1.60;;
4569;SDS011;2297;51.442;6.996;2023-04-03T15:24:03;23.33;;;10.85;;
4569;SDS011;2297;51.442;6.996;2023-04-03T15:26:29;5.38;;;2.40;;
4569;SDS011;2297;51.442;6.996;2023-04-03T15:28:57;5.30;;;2.00;;
4569;SDS011;2297;51.442;6.996;2023-04-03T15:31:24;3.67;;;1.52;;
4569;SDS011;2297;51.442;6.996;2023-04-03T15:33:51;2.92;;;1.42;;
4569;SDS011;2297;51.442;6.996;2023-04-03T15:36:19;3.50;;;1.52;;
4569;SDS011;2297;51.442;6.996;2023-04-03T15:38:45;4.38;;;2.35;;
4569;SDS011;2297;51.442;6.996;2023-04-03T15:41:12;3.63;;;1.52;;
4569;SDS011;2297;51.442;6.996;2023-04-03T15:43:38;3.65;;;1.90;;
4569;SDS011;2297;51.442;6.996;2023-04-03T15:46:05;2.70;;;1.40;;
4569;SDS011;2297;51.442;6.996;2023-04-03T15:48:32;3.28;;;1.75;;
4569;SDS011;2297;51.442;6.996;2023-04-03T15:50:59;3.22;;;1.40;;
4569;SDS011;2297;51.442;6.996;2023-04-03T15:53:27;3.83;;;1.73;;
4569;SDS011;2297;51.442;6.996;2023-04-03T15:55:54;3.15;;;1.30;;
4569;SDS011;2297;51.442;6.996;2023-04-03T15:58:20;1.77;;;1.25;;